This is the latest recevied weather packets stored in our database for station/object OH1KK. If no packets are shown the sender has not sent any weather packets the latest 1 day(s).
| Time | Temp. | Humidity | Pressure | Rain* | Wind** | Luminosity | Snow |
|---|---|---|---|---|---|---|---|
| 1778022266 | 1.11° C | 74% | 995.6 hPa | 0 mm | 0 m/s | - | - |
| 1778021350 | 1.11° C | 73% | 995.5 hPa | 0 mm | 0 m/s | - | - |
| 1778020496 | 1.67° C | 72% | 995.7 hPa | 0 mm | 0.45 m/s, 257° | - | - |
| 1778018666 | 2.22° C | 68% | 995.6 hPa | 0 mm | 0.45 m/s, 190° | - | - |
| 1778017750 | 2.22° C | 67% | 995.4 hPa | 0 mm | 0.89 m/s, 219° | - | - |
| 1778016896 | 2.22° C | 67% | 995.4 hPa | 0 mm | 0.45 m/s, 267° | - | - |
| 1778015981 | 2.22° C | 66% | 995.3 hPa | 0 mm | 0.45 m/s, 199° | - | - |
| 1778014150 | 2.78° C | 64% | 995.2 hPa | 0 mm | 0.45 m/s, 230° | - | - |
| 1778013296 | 2.78° C | 63% | 995.1 hPa | 0 mm | 0.45 m/s, 250° | - | - |
| 1778012381 | 3.33° C | 62% | 995 hPa | 0 mm | 0.89 m/s, 255° | - | - |
| 1778011465 | 3.89° C | 60% | 995 hPa | 0 mm | 0.45 m/s, 190° | - | - |
| 1778007866 | 5.56° C | 52% | 994.5 hPa | 0 mm | 2.68 m/s, 270° | - | - |
| 1778006957 | 5.56° C | 52% | 994.8 hPa | 0 mm | 0.45 m/s, 233° | - | - |
| 1778006097 | 6.11° C | 49% | 994.5 hPa | 0 mm | 3.13 m/s, 230° | - | - |
| 1778005181 | 6.11° C | 48% | 994.4 hPa | 0 mm | 0.89 m/s, 234° | - | - |
| 1778004267 | 6.67° C | 46% | 994.5 hPa | 0 mm | 2.68 m/s, 246° | - | - |
| 1778003352 | 7.22° C | 44% | 994.2 hPa | 0 mm | 1.34 m/s, 271° | - | - |
| 1778002498 | 7.78° C | 42% | 993.9 hPa | 0 mm | 3.58 m/s, 272° | - | - |
| 1778000668 | 8.33° C | 38% | 993.7 hPa | 0 mm | 2.24 m/s, 281° | - | - |
| 1777999752 | 8.33° C | 38% | 993.7 hPa | 0 mm | 1.79 m/s, 290° | - | - |
| 1777997069 | 8.89° C | 35% | 993.6 hPa | 0 mm | 2.24 m/s, 291° | - | - |
| 1777996153 | 9.44° C | 33% | 993.6 hPa | 0 mm | 5.36 m/s, 281° | - | - |
| 1777995299 | 8.89° C | 32% | 993.5 hPa | 0 mm | 3.13 m/s, 311° | - | - |
| 1777994384 | 9.44° C | 35% | 993.3 hPa | 0 mm | 1.79 m/s, 286° | - | - |
| 1777993468 | 8.89° C | 34% | 993.1 hPa | 0 mm | 2.24 m/s, 287° | - | - |
* Rain latest hour (hover to see other rain measurements)
** Current wind speed in m/s (hover to see current wind gust speed)